createdAt,value
2023-04-12T00:01:14.328Z,36.56
2023-04-12T00:03:21.022Z,36.63
2023-04-12T00:05:27.586Z,36.48
2023-04-12T00:07:30.344Z,36.47
2023-04-12T00:09:36.553Z,36.78
2023-04-12T00:11:39.247Z,36.58
2023-04-12T00:13:41.971Z,36.60
2023-04-12T00:15:46.183Z,36.70
2023-04-12T00:17:48.875Z,36.74
2023-04-12T00:19:51.532Z,36.63
2023-04-12T00:21:54.247Z,36.64
2023-04-12T00:23:57.404Z,36.82
2023-04-12T00:26:00.300Z,37.17
2023-04-12T00:28:02.946Z,36.90
2023-04-12T00:30:07.621Z,37.00
2023-04-12T00:32:10.395Z,37.24
2023-04-12T00:34:13.038Z,37.27
2023-04-12T00:36:16.136Z,37.38
2023-04-12T00:38:19.177Z,37.06
2023-04-12T00:40:22.464Z,37.22
2023-04-12T00:42:25.285Z,37.21
2023-04-12T00:44:27.926Z,37.55
2023-04-12T00:46:31.256Z,36.98
2023-04-12T00:48:34.418Z,37.43
2023-04-12T00:50:37.114Z,37.29
2023-04-12T00:52:40.309Z,37.11
2023-04-12T00:54:44.465Z,37.14
2023-04-12T00:56:47.465Z,36.86
2023-04-12T00:58:50.276Z,37.31
2023-04-12T01:00:56.008Z,37.58
2023-04-12T01:02:59.532Z,37.50
2023-04-12T01:05:03.188Z,37.27
2023-04-12T01:07:45.228Z,37.65
2023-04-12T01:09:59.081Z,37.31
2023-04-12T01:12:09.116Z,37.65
2023-04-12T01:14:33.119Z,37.63
2023-04-12T01:16:47.945Z,37.43
2023-04-12T01:18:52.343Z,37.61
2023-04-12T01:21:08.199Z,37.36
2023-04-12T01:23:48.210Z,37.48
2023-04-12T01:26:24.603Z,37.68
2023-04-12T01:28:34.927Z,37.75
2023-04-12T01:30:39.652Z,37.33
2023-04-12T01:32:45.824Z,37.81
2023-04-12T01:34:49.380Z,37.77
2023-04-12T01:36:53.279Z,37.66
2023-04-12T01:38:56.992Z,37.65
2023-04-12T01:41:00.592Z,37.94
2023-04-12T01:43:11.829Z,38.07
2023-04-12T01:45:14.629Z,37.94
2023-04-12T01:47:17.503Z,38.19
2023-04-12T01:49:22.515Z,37.83
2023-04-12T01:51:51.288Z,38.17
2023-04-12T01:54:11.233Z,38.20
2023-04-12T01:56:17.013Z,38.45
2023-04-12T01:58:22.950Z,37.90
2023-04-12T02:00:27.915Z,38.36
2023-04-12T02:02:31.141Z,38.17
2023-04-12T02:04:38.604Z,38.07
2023-04-12T02:06:42.808Z,38.24
2023-04-12T02:08:45.958Z,38.31
2023-04-12T02:10:48.615Z,38.14
2023-04-12T02:12:51.865Z,37.98
2023-04-12T02:14:54.670Z,38.02
2023-04-12T02:16:58.676Z,38.02
2023-04-12T02:19:01.493Z,38.12
2023-04-12T02:21:04.321Z,37.88
2023-04-12T02:23:07.002Z,37.88
2023-04-12T02:25:09.921Z,38.04
2023-04-12T02:27:12.600Z,37.76
2023-04-12T02:29:15.234Z,37.81
2023-04-12T02:31:18.884Z,37.44
2023-04-12T02:33:28.490Z,37.58
2023-04-12T02:35:32.382Z,37.64
2023-04-12T02:37:35.044Z,37.34
2023-04-12T02:39:37.701Z,37.29
2023-04-12T02:41:40.546Z,36.89
2023-04-12T02:43:43.225Z,36.87
2023-04-12T02:45:47.122Z,36.91
2023-04-12T02:47:49.837Z,36.71
2023-04-12T02:49:52.520Z,36.57
2023-04-12T02:51:55.861Z,36.56
2023-04-12T02:53:58.668Z,36.59
2023-04-12T02:56:01.833Z,36.13
2023-04-12T02:58:04.492Z,36.38
2023-04-12T03:00:17.044Z,36.34
2023-04-12T03:02:21.373Z,36.14
2023-04-12T03:04:30.156Z,36.32
2023-04-12T03:06:33.160Z,36.40
2023-04-12T03:08:36.432Z,36.32
2023-04-12T03:10:39.589Z,36.47
2023-04-12T03:12:42.363Z,36.06
2023-04-12T03:14:44.954Z,36.26
2023-04-12T03:16:49.294Z,36.47
2023-04-12T03:18:52.158Z,36.04
2023-04-12T03:20:54.739Z,35.70
2023-04-12T03:22:57.462Z,35.52
2023-04-12T03:25:00.130Z,35.43
2023-04-12T03:27:04.069Z,35.44
2023-04-12T03:29:10.090Z,35.50
2023-04-12T03:31:14.022Z,35.58
2023-04-12T03:33:16.745Z,35.44
2023-04-12T03:35:19.643Z,35.09
2023-04-12T03:37:22.307Z,35.30
2023-04-12T03:39:25.239Z,35.27
2023-04-12T03:41:29.121Z,35.29
2023-04-12T03:43:36.112Z,35.35
2023-04-12T03:45:38.875Z,35.31
2023-04-12T03:47:42.061Z,34.95
2023-04-12T03:49:51.395Z,35.46
2023-04-12T03:52:00.442Z,35.06
2023-04-12T03:54:03.124Z,34.87
2023-04-12T03:56:06.106Z,34.99
2023-04-12T03:58:08.700Z,34.89
2023-04-12T04:00:12.691Z,35.01
2023-04-12T04:02:16.135Z,34.55
2023-04-12T04:04:19.136Z,34.54
2023-04-12T04:06:22.134Z,34.58
2023-04-12T04:08:24.798Z,34.74
2023-04-12T04:10:28.425Z,34.54
2023-04-12T04:12:31.399Z,34.54
2023-04-12T04:14:37.045Z,34.31
2023-04-12T04:16:40.848Z,34.40
2023-04-12T04:18:43.820Z,34.34
2023-04-12T04:20:46.542Z,34.46
2023-04-12T04:22:49.203Z,34.36
2023-04-12T04:24:51.943Z,34.43
2023-04-12T04:26:54.764Z,34.22
2023-04-12T04:29:01.875Z,33.83
2023-04-12T04:31:06.543Z,33.85
2023-04-12T04:33:09.208Z,33.79
2023-04-12T04:35:12.491Z,33.54
2023-04-12T04:37:16.253Z,33.73
2023-04-12T04:39:18.839Z,33.45
2023-04-12T04:41:22.942Z,33.73
2023-04-12T04:43:26.508Z,33.56
2023-04-12T04:45:30.711Z,33.20
2023-04-12T04:47:33.463Z,33.02
2023-04-12T04:49:39.105Z,33.00
2023-04-12T04:51:41.763Z,32.81
2023-04-12T04:53:44.780Z,32.78
2023-04-12T04:55:47.959Z,32.53
2023-04-12T04:57:51.299Z,32.73
2023-04-12T04:59:54.028Z,32.44
2023-04-12T05:01:56.665Z,32.47
2023-04-12T05:03:59.712Z,32.42
2023-04-12T05:06:03.547Z,32.36
2023-04-12T05:08:06.391Z,32.21
2023-04-12T05:10:10.074Z,32.75
2023-04-12T05:12:12.737Z,32.59
2023-04-12T05:14:15.943Z,32.67
2023-04-12T05:16:20.049Z,32.17
2023-04-12T05:18:24.674Z,31.81
2023-04-12T05:20:29.241Z,31.59
2023-04-12T05:22:33.077Z,31.52
2023-04-12T05:24:37.074Z,31.45
2023-04-12T05:26:41.074Z,31.77
2023-04-12T05:28:44.929Z,31.17
2023-04-12T05:30:48.532Z,30.89
2023-04-12T05:32:51.726Z,30.94
2023-04-12T05:34:55.100Z,31.02
2023-04-12T05:36:59.788Z,30.42
2023-04-12T05:39:03.144Z,30.91
2023-04-12T05:41:06.682Z,30.42
2023-04-12T05:43:13.756Z,30.86
2023-04-12T05:45:16.456Z,30.59
2023-04-12T05:47:19.454Z,31.03
2023-04-12T05:49:26.163Z,30.56
2023-04-12T05:51:40.501Z,30.53
2023-04-12T05:53:44.534Z,29.88
2023-04-12T05:55:48.666Z,29.88
2023-04-12T05:57:53.299Z,29.71
2023-04-12T05:59:56.541Z,29.12
2023-04-12T06:02:00.784Z,28.66
2023-04-12T06:04:04.535Z,29.16
2023-04-12T06:06:08.329Z,29.13
2023-04-12T06:08:13.307Z,28.54
2023-04-12T06:10:17.869Z,28.50
2023-04-12T06:12:21.556Z,28.43
2023-04-12T06:14:24.670Z,28.42
2023-04-12T06:16:28.305Z,28.07
2023-04-12T06:18:31.761Z,27.73
2023-04-12T06:20:34.699Z,27.95
2023-04-12T06:22:38.396Z,27.61
2023-04-12T06:24:41.836Z,27.41
2023-04-12T06:26:47.192Z,26.64
2023-04-12T06:28:50.136Z,26.48
2023-04-12T06:30:54.117Z,26.46
2023-04-12T06:32:57.044Z,26.80
2023-04-12T06:34:59.769Z,26.23
2023-04-12T06:37:02.494Z,25.89
2023-04-12T06:39:05.240Z,26.13
2023-04-12T06:41:07.960Z,26.51
2023-04-12T06:43:10.595Z,26.67
2023-04-12T06:45:13.274Z,26.59
2023-04-12T06:47:16.197Z,26.53
2023-04-12T06:49:19.970Z,26.45
2023-04-12T06:51:22.967Z,26.31
2023-04-12T06:53:26.019Z,26.35
2023-04-12T06:55:29.469Z,26.39
2023-04-12T06:57:32.190Z,26.42
2023-04-12T06:59:35.143Z,26.34
2023-04-12T07:01:37.986Z,26.13
2023-04-12T07:03:41.266Z,26.22
2023-04-12T07:05:45.244Z,26.06
2023-04-12T07:07:47.906Z,26.21
2023-04-12T07:09:52.430Z,26.65
2023-04-12T07:11:55.060Z,26.06
2023-04-12T07:13:59.361Z,26.36
2023-04-12T07:16:02.208Z,26.08
2023-04-12T07:18:05.021Z,26.46
2023-04-12T07:20:08.221Z,25.76
2023-04-12T07:22:12.529Z,25.68
2023-04-12T07:24:16.704Z,25.42
2023-04-12T07:26:19.639Z,25.33
2023-04-12T07:28:22.317Z,25.43
2023-04-12T07:30:25.825Z,26.10
2023-04-12T07:32:28.745Z,27.09
2023-04-12T07:34:31.731Z,27.11
2023-04-12T07:36:34.484Z,26.93
2023-04-12T07:38:37.233Z,27.12
2023-04-12T07:40:40.194Z,28.03
2023-04-12T07:42:42.988Z,27.31
2023-04-12T07:44:45.748Z,27.37
2023-04-12T07:46:48.455Z,27.32
2023-04-12T07:48:52.002Z,27.30
2023-04-12T07:50:54.702Z,27.59
2023-04-12T07:53:20.625Z,27.27
2023-04-12T07:55:23.432Z,27.31
2023-04-12T07:57:27.060Z,27.11
2023-04-12T07:59:30.872Z,27.41
2023-04-12T08:01:33.683Z,27.45
2023-04-12T08:03:36.695Z,27.63
2023-04-12T08:05:41.052Z,27.21
2023-04-12T08:07:44.270Z,27.59
2023-04-12T08:09:47.501Z,27.20
2023-04-12T08:11:50.209Z,27.38
2023-04-12T08:13:53.901Z,27.26
2023-04-12T08:15:56.657Z,27.37
2023-04-12T08:17:59.616Z,27.15
2023-04-12T08:20:04.775Z,27.13
2023-04-12T08:22:08.508Z,27.09
2023-04-12T08:24:11.248Z,27.05
2023-04-12T08:26:13.846Z,27.43
2023-04-12T08:28:17.031Z,27.31
2023-04-12T08:30:20.018Z,27.29
2023-04-12T08:32:23.975Z,27.23
2023-04-12T08:34:28.089Z,26.86
2023-04-12T08:36:31.073Z,27.04
2023-04-12T08:38:44.809Z,27.49
2023-04-12T08:40:48.715Z,27.21
2023-04-12T08:42:53.153Z,27.51
2023-04-12T08:44:55.937Z,27.47
2023-04-12T08:46:58.860Z,27.51
2023-04-12T08:49:01.516Z,27.62
2023-04-12T08:51:05.242Z,27.87
2023-04-12T08:53:11.042Z,27.88
2023-04-12T08:55:13.991Z,27.45
2023-04-12T08:57:19.373Z,27.55
2023-04-12T08:59:22.889Z,27.27
2023-04-12T09:01:26.177Z,26.57
2023-04-12T09:03:32.899Z,26.60
2023-04-12T09:05:36.536Z,26.32
2023-04-12T09:07:39.290Z,26.46
2023-04-12T09:09:46.811Z,26.68
2023-04-12T09:11:49.642Z,26.56
2023-04-12T09:13:53.903Z,26.78
2023-04-12T09:15:56.661Z,26.69
2023-04-12T09:18:16.651Z,26.50
2023-04-12T09:20:21.772Z,26.50
2023-04-12T09:22:40.135Z,26.09
2023-04-12T09:24:48.820Z,26.52
2023-04-12T09:27:07.655Z,25.78
2023-04-12T09:29:26.020Z,25.39
2023-04-12T09:31:28.966Z,26.28
2023-04-12T09:33:39.651Z,26.49
2023-04-12T09:35:43.315Z,26.58
2023-04-12T09:37:46.520Z,26.34
2023-04-12T09:40:00.587Z,26.68
2023-04-12T09:42:18.122Z,26.84
2023-04-12T09:44:30.834Z,27.20
2023-04-12T09:46:34.207Z,26.72
2023-04-12T09:48:39.373Z,26.03
2023-04-12T09:50:42.872Z,26.28
2023-04-12T09:52:46.097Z,26.37
2023-04-12T09:54:49.004Z,26.86
2023-04-12T09:56:52.092Z,26.83
2023-04-12T09:58:55.783Z,27.35
2023-04-12T10:01:02.941Z,27.54
2023-04-12T10:03:07.502Z,27.70
2023-04-12T10:05:13.704Z,27.48
2023-04-12T10:07:17.347Z,27.06
2023-04-12T10:09:20.018Z,27.26
2023-04-12T10:11:22.743Z,26.91
2023-04-12T10:13:27.291Z,27.44
2023-04-12T10:15:30.716Z,27.30
2023-04-12T10:17:36.061Z,27.13
2023-04-12T10:19:40.271Z,27.09
2023-04-12T10:21:43.179Z,26.37
2023-04-12T10:23:47.461Z,26.34
2023-04-12T10:25:50.592Z,26.24
2023-04-12T10:27:53.871Z,26.15
2023-04-12T10:30:23.698Z,26.06
2023-04-12T10:32:27.063Z,25.84
2023-04-12T10:34:32.812Z,25.68
2023-04-12T10:36:56.931Z,24.86
2023-04-12T10:39:11.282Z,25.22
2023-04-12T10:41:21.098Z,25.14
2023-04-12T10:43:23.995Z,25.34
2023-04-12T10:45:32.543Z,25.45
2023-04-12T10:47:50.793Z,25.01
2023-04-12T10:50:32.526Z,25.00
2023-04-12T10:52:39.387Z,24.94
2023-04-12T10:54:42.396Z,24.65
2023-04-12T10:56:46.818Z,24.64
2023-04-12T10:58:49.696Z,23.83
2023-04-12T11:00:58.916Z,23.63
2023-04-12T11:03:07.882Z,23.58
2023-04-12T11:05:11.737Z,23.63
2023-04-12T11:07:14.907Z,23.76
2023-04-12T11:09:19.038Z,23.83
2023-04-12T11:11:22.989Z,23.69
2023-04-12T11:13:27.632Z,23.93
2023-04-12T11:15:34.278Z,23.69
2023-04-12T11:17:37.917Z,23.43
2023-04-12T11:19:49.363Z,23.56
2023-04-12T11:21:52.402Z,23.38
2023-04-12T11:23:55.956Z,23.73
2023-04-12T11:25:59.372Z,23.45
2023-04-12T11:28:02.716Z,23.53
2023-04-12T11:30:07.602Z,23.33
2023-04-12T11:32:16.051Z,22.97
2023-04-12T11:34:20.167Z,22.61
2023-04-12T11:36:22.982Z,22.84
2023-04-12T11:38:25.982Z,22.47
2023-04-12T11:40:28.868Z,22.29
2023-04-12T11:42:33.080Z,22.37
2023-04-12T11:44:52.489Z,22.02
2023-04-12T11:46:58.773Z,22.03
2023-04-12T11:49:01.737Z,21.91
2023-04-12T11:51:25.480Z,21.91
2023-04-12T11:53:32.231Z,21.97
2023-04-12T11:55:34.971Z,22.28
2023-04-12T11:57:39.266Z,22.11
2023-04-12T11:59:45.314Z,22.38
2023-04-12T12:01:51.725Z,21.90
2023-04-12T12:03:55.441Z,22.00
2023-04-12T12:05:59.021Z,22.22
2023-04-12T12:08:06.380Z,21.77
2023-04-12T12:10:09.987Z,21.45
2023-04-12T12:12:13.709Z,21.23
2023-04-12T12:14:20.985Z,21.29
2023-04-12T12:16:28.578Z,21.31
2023-04-12T12:18:31.625Z,21.27
2023-04-12T12:20:40.273Z,21.75
2023-04-12T12:22:47.625Z,21.43
2023-04-12T12:24:59.625Z,21.23
2023-04-12T12:27:03.659Z,21.04
2023-04-12T12:29:09.372Z,20.72
2023-04-12T12:31:12.744Z,20.66
2023-04-12T12:33:23.146Z,20.29
2023-04-12T12:35:34.737Z,20.48
2023-04-12T12:37:37.658Z,20.33
2023-04-12T12:39:40.489Z,20.15
2023-04-12T12:41:43.221Z,19.83
2023-04-12T12:43:53.255Z,19.92
2023-04-12T12:45:56.120Z,19.53
2023-04-12T12:48:04.082Z,19.37
2023-04-12T12:50:07.371Z,19.67
2023-04-12T12:52:10.124Z,20.06
2023-04-12T12:54:12.817Z,20.07
2023-04-12T12:56:16.331Z,20.17
2023-04-12T12:58:19.077Z,20.13
2023-04-12T13:00:24.954Z,19.66
2023-04-12T13:02:27.799Z,19.63
2023-04-12T13:04:30.874Z,19.56
2023-04-12T13:06:33.716Z,19.40
2023-04-12T13:08:37.483Z,19.82
2023-04-12T13:10:40.319Z,19.83
2023-04-12T13:12:43.237Z,19.45
2023-04-12T13:14:46.258Z,19.42
2023-04-12T13:16:49.515Z,19.82
2023-04-12T13:18:52.612Z,19.71
2023-04-12T13:20:55.382Z,19.58
2023-04-12T13:22:58.178Z,19.76
2023-04-12T13:25:02.146Z,19.78
2023-04-12T13:27:08.602Z,19.52
2023-04-12T13:29:11.237Z,19.64
2023-04-12T13:31:13.988Z,19.63
2023-04-12T13:33:20.121Z,19.67
2023-04-12T13:35:24.571Z,19.89
2023-04-12T13:37:27.519Z,20.32
2023-04-12T13:39:33.096Z,19.96
2023-04-12T13:41:36.362Z,20.09
2023-04-12T13:43:39.032Z,20.15
2023-04-12T13:45:41.840Z,20.63
2023-04-12T13:47:44.639Z,20.86
2023-04-12T13:49:47.491Z,20.61
2023-04-12T13:51:50.658Z,20.66
2023-04-12T13:53:53.712Z,20.29
2023-04-12T13:55:57.595Z,20.37
2023-04-12T13:58:00.311Z,20.16
2023-04-12T14:00:03.063Z,20.27
2023-04-12T14:02:06.685Z,20.24
2023-04-12T14:04:09.560Z,19.95
2023-04-12T14:06:12.362Z,19.80
2023-04-12T14:08:15.159Z,19.67
2023-04-12T14:10:18.219Z,19.74
2023-04-12T14:12:21.170Z,19.89
2023-04-12T14:14:25.604Z,19.01
2023-04-12T14:16:28.334Z,19.03
2023-04-12T14:18:31.053Z,18.93
2023-04-12T14:20:33.811Z,19.57
2023-04-12T14:22:37.158Z,19.53
2023-04-12T14:24:40.401Z,19.08
2023-04-12T14:26:43.183Z,19.29
2023-04-12T14:28:45.814Z,20.08
2023-04-12T14:30:51.676Z,19.91
2023-04-12T14:32:54.624Z,19.45
2023-04-12T14:34:57.514Z,19.80
2023-04-12T14:37:00.746Z,19.66
2023-04-12T14:39:04.211Z,20.23
2023-04-12T14:41:08.976Z,20.58
2023-04-12T14:43:11.786Z,20.92
2023-04-12T14:45:15.670Z,20.11
2023-04-12T14:47:18.585Z,20.14
2023-04-12T14:49:21.399Z,20.46
2023-04-12T14:51:24.328Z,21.21
2023-04-12T14:53:27.352Z,21.98
2023-04-12T14:55:30.238Z,21.80
2023-04-12T14:57:35.704Z,21.51
2023-04-12T14:59:38.573Z,21.34
2023-04-12T15:01:42.221Z,21.20
2023-04-12T15:03:46.186Z,21.49
2023-04-12T15:05:49.037Z,21.60
2023-04-12T15:07:51.831Z,21.87
2023-04-12T15:09:55.638Z,22.10
2023-04-12T15:12:01.594Z,22.05
2023-04-12T15:14:05.351Z,23.59
2023-04-12T15:16:09.419Z,23.33
2023-04-12T15:18:12.234Z,23.56
2023-04-12T15:20:17.440Z,23.77
2023-04-12T15:22:20.381Z,24.86
2023-04-12T15:24:24.020Z,24.33
2023-04-12T15:26:26.735Z,24.70
2023-04-12T15:28:29.990Z,24.46
2023-04-12T15:30:32.680Z,25.29
2023-04-12T15:32:39.806Z,25.32
2023-04-12T15:34:44.195Z,27.19
2023-04-12T15:36:46.992Z,25.76
2023-04-12T15:38:51.614Z,25.57
2023-04-12T15:40:59.460Z,26.51
2023-04-12T15:43:02.482Z,26.15
2023-04-12T15:45:05.815Z,27.02
2023-04-12T15:47:11.670Z,26.74
2023-04-12T15:49:15.065Z,28.26
2023-04-12T15:51:17.887Z,26.98
2023-04-12T15:53:22.576Z,27.12
2023-04-12T15:55:25.471Z,27.35
2023-04-12T15:57:28.583Z,27.47
2023-04-12T15:59:32.186Z,27.62
2023-04-12T16:01:36.122Z,27.87
2023-04-12T16:03:39.217Z,27.69
2023-04-12T16:05:44.501Z,27.86
2023-04-12T16:07:51.180Z,27.78
2023-04-12T16:09:54.100Z,27.80
2023-04-12T16:11:57.922Z,28.25
2023-04-12T16:14:02.502Z,28.33
2023-04-12T16:16:06.173Z,28.63
2023-04-12T16:18:09.444Z,28.64
2023-04-12T16:20:17.043Z,28.36
2023-04-12T16:22:21.065Z,28.76
2023-04-12T16:24:23.926Z,29.34
2023-04-12T16:26:27.690Z,28.99
2023-04-12T16:28:30.806Z,28.96
2023-04-12T16:30:34.414Z,29.19
2023-04-12T16:32:38.786Z,29.30
2023-04-12T16:34:43.109Z,29.01
2023-04-12T16:36:46.199Z,29.05
2023-04-12T16:38:49.797Z,29.32
2023-04-12T16:40:52.703Z,29.18
2023-04-12T16:42:56.128Z,29.36
2023-04-12T16:44:59.190Z,29.29
2023-04-12T16:47:02.189Z,30.35
2023-04-12T16:49:06.028Z,30.08
2023-04-12T16:51:09.108Z,29.93
2023-04-12T16:53:12.546Z,29.87
2023-04-12T16:55:16.231Z,30.31
2023-04-12T16:57:19.153Z,30.41
2023-04-12T16:59:22.280Z,30.32
2023-04-12T17:01:25.212Z,30.54
2023-04-12T17:03:28.473Z,30.61
2023-04-12T17:05:32.792Z,30.44
2023-04-12T17:07:35.828Z,30.42
2023-04-12T17:09:38.608Z,30.75
2023-04-12T17:11:41.629Z,31.17
2023-04-12T17:13:44.930Z,31.20
2023-04-12T17:15:50.595Z,31.20
2023-04-12T17:18:00.467Z,30.91
2023-04-12T17:20:06.357Z,31.09
2023-04-12T17:22:10.303Z,31.32
2023-04-12T17:24:16.698Z,31.49
2023-04-12T17:26:26.124Z,31.46
2023-04-12T17:28:43.937Z,31.67
2023-04-12T17:30:48.471Z,31.86
2023-04-12T17:32:52.299Z,32.04
2023-04-12T17:34:55.525Z,32.15
2023-04-12T17:37:00.063Z,32.00
2023-04-12T17:39:05.353Z,32.50
2023-04-12T17:41:09.681Z,32.21
2023-04-12T17:43:13.130Z,32.48
2023-04-12T17:45:17.850Z,32.57
2023-04-12T17:47:21.138Z,32.45
2023-04-12T17:49:25.732Z,32.59
2023-04-12T17:51:29.819Z,33.27
2023-04-12T17:53:32.791Z,32.89
2023-04-12T17:55:38.171Z,33.06
2023-04-12T17:57:42.145Z,33.26
2023-04-12T17:59:44.927Z,32.94
2023-04-12T18:01:47.815Z,33.15
2023-04-12T18:03:50.807Z,33.25
2023-04-12T18:05:55.810Z,33.40
2023-04-12T18:07:59.770Z,33.00
2023-04-12T18:10:03.488Z,33.56
2023-04-12T18:12:06.732Z,33.26
2023-04-12T18:14:11.148Z,34.08
2023-04-12T18:16:14.323Z,33.27
2023-04-12T18:18:17.165Z,33.29
2023-04-12T18:20:20.086Z,33.44
2023-04-12T18:22:22.924Z,33.73
2023-04-12T18:24:35.438Z,33.66
2023-04-12T18:26:39.228Z,33.95
2023-04-12T18:28:42.176Z,33.51
2023-04-12T18:30:44.931Z,33.28
2023-04-12T18:32:48.141Z,33.66
2023-04-12T18:35:02.568Z,33.77
2023-04-12T18:37:19.836Z,34.37
2023-04-12T18:39:36.342Z,33.91
2023-04-12T18:42:03.310Z,34.37
2023-04-12T18:44:44.189Z,34.32
2023-04-12T18:47:15.608Z,35.32
2023-04-12T18:49:29.945Z,35.51
2023-04-12T18:51:50.160Z,36.03
2023-04-12T18:53:58.616Z,36.58
2023-04-12T18:56:18.489Z,36.88
2023-04-12T18:58:29.767Z,36.92
2023-04-12T19:00:47.017Z,37.25
2023-04-12T19:03:01.298Z,37.40
2023-04-12T19:05:11.912Z,36.98
2023-04-12T19:07:14.875Z,37.76
2023-04-12T19:09:17.715Z,37.86
2023-04-12T19:11:20.395Z,38.15
2023-04-12T19:13:23.353Z,37.62
2023-04-12T19:15:26.073Z,37.83
2023-04-12T19:17:29.729Z,37.87
2023-04-12T19:19:32.441Z,37.70
2023-04-12T19:21:35.714Z,38.01
2023-04-12T19:23:38.407Z,38.14
2023-04-12T19:25:41.391Z,37.74
2023-04-12T19:27:44.094Z,38.02
2023-04-12T19:29:46.868Z,37.96
2023-04-12T19:31:49.947Z,38.53
2023-04-12T19:33:54.048Z,38.13
2023-04-12T19:35:56.892Z,37.38
2023-04-12T19:37:59.998Z,38.01
2023-04-12T19:40:02.800Z,38.06
2023-04-12T19:42:05.644Z,37.62
2023-04-12T19:44:08.343Z,37.84
2023-04-12T19:46:12.026Z,37.68
2023-04-12T19:48:14.783Z,37.91
2023-04-12T19:50:17.949Z,37.92
2023-04-12T19:52:22.123Z,37.37
2023-04-12T19:54:25.732Z,37.87
2023-04-12T19:56:30.699Z,37.55
2023-04-12T19:58:33.668Z,37.63
2023-04-12T20:00:39.350Z,37.72
2023-04-12T20:02:42.616Z,37.83
2023-04-12T20:04:45.219Z,37.90
2023-04-12T20:06:52.057Z,37.77
2023-04-12T20:08:54.691Z,37.64
2023-04-12T20:10:57.341Z,38.03
2023-04-12T20:13:00.118Z,38.15
2023-04-12T20:15:04.580Z,37.75
2023-04-12T20:17:08.285Z,38.15
2023-04-12T20:19:12.165Z,38.01
2023-04-12T20:21:14.781Z,38.14
2023-04-12T20:23:17.815Z,38.10
2023-04-12T20:25:20.729Z,38.14
2023-04-12T20:27:23.399Z,38.39
2023-04-12T20:29:26.738Z,38.54
2023-04-12T20:31:29.493Z,38.43
2023-04-12T20:33:32.862Z,38.85
2023-04-12T20:35:35.721Z,39.06
2023-04-12T20:37:38.365Z,38.79
2023-04-12T20:39:41.065Z,38.95
2023-04-12T20:41:50.110Z,38.98
2023-04-12T20:43:52.831Z,39.24
2023-04-12T20:45:55.606Z,39.29
2023-04-12T20:47:58.349Z,39.27
2023-04-12T20:50:18.202Z,39.07
2023-04-12T20:52:20.985Z,39.35
2023-04-12T20:54:26.837Z,39.30
2023-04-12T20:56:29.487Z,39.33
2023-04-12T20:58:35.364Z,39.37
2023-04-12T21:00:40.700Z,39.27
2023-04-12T21:02:45.554Z,39.65
2023-04-12T21:04:48.663Z,39.36
2023-04-12T21:06:55.586Z,39.55
2023-04-12T21:08:59.081Z,39.37
2023-04-12T21:11:02.383Z,39.61
2023-04-12T21:13:05.088Z,39.34
2023-04-12T21:15:08.754Z,39.75
2023-04-12T21:17:11.741Z,39.42
2023-04-12T21:19:18.606Z,39.63
2023-04-12T21:21:21.710Z,39.24
2023-04-12T21:23:24.566Z,39.69
2023-04-12T21:25:27.174Z,39.72
2023-04-12T21:27:30.152Z,39.52
2023-04-12T21:29:34.631Z,39.74
2023-04-12T21:31:39.300Z,39.70
2023-04-12T21:33:42.492Z,39.63
2023-04-12T21:35:45.305Z,39.76
2023-04-12T21:37:47.991Z,39.79
2023-04-12T21:39:50.687Z,39.82
2023-04-12T21:41:53.489Z,39.64
2023-04-12T21:43:56.215Z,39.67
2023-04-12T21:45:58.873Z,39.85
2023-04-12T21:48:01.577Z,40.11
2023-04-12T21:50:04.759Z,40.18
2023-04-12T21:52:07.460Z,40.17
2023-04-12T21:54:10.164Z,40.25
2023-04-12T21:56:12.725Z,40.07
2023-04-12T21:58:15.944Z,40.34
2023-04-12T22:00:18.963Z,40.32
2023-04-12T22:02:21.700Z,40.54
2023-04-12T22:04:24.496Z,40.54
2023-04-12T22:06:27.452Z,40.55
2023-04-12T22:08:30.072Z,40.50
2023-04-12T22:10:34.665Z,40.84
2023-04-12T22:12:37.604Z,41.11
2023-04-12T22:14:46.736Z,40.76
2023-04-12T22:16:51.212Z,41.15
2023-04-12T22:18:55.758Z,41.12
2023-04-12T22:20:59.688Z,41.23
2023-04-12T22:23:03.182Z,41.37
2023-04-12T22:25:08.736Z,41.30
2023-04-12T22:27:11.634Z,41.27
2023-04-12T22:29:17.548Z,41.45
2023-04-12T22:31:23.151Z,41.34
2023-04-12T22:33:26.037Z,41.43
2023-04-12T22:35:30.235Z,41.43
2023-04-12T22:37:35.069Z,41.63
2023-04-12T22:39:37.946Z,41.50
2023-04-12T22:41:42.028Z,41.87
2023-04-12T22:43:47.852Z,41.64
2023-04-12T22:45:54.110Z,41.57
2023-04-12T22:47:57.200Z,41.76
2023-04-12T22:50:01.784Z,41.42
2023-04-12T22:52:06.766Z,41.11
2023-04-12T22:54:10.650Z,41.33
2023-04-12T22:56:13.646Z,41.31
2023-04-12T22:58:16.413Z,41.15
2023-04-12T23:00:19.027Z,41.02
2023-04-12T23:02:21.746Z,41.11
2023-04-12T23:04:24.438Z,41.11
2023-04-12T23:06:27.916Z,41.16
2023-04-12T23:08:31.039Z,41.17
2023-04-12T23:10:34.415Z,41.40
2023-04-12T23:12:37.630Z,41.36
2023-04-12T23:14:40.413Z,41.37
2023-04-12T23:16:44.585Z,41.38
2023-04-12T23:18:48.279Z,41.55
2023-04-12T23:20:51.564Z,41.73
2023-04-12T23:22:57.879Z,41.88
2023-04-12T23:25:02.437Z,41.74
2023-04-12T23:27:06.367Z,41.85
2023-04-12T23:29:09.196Z,41.59
2023-04-12T23:31:12.357Z,41.91
2023-04-12T23:33:20.472Z,41.85
2023-04-12T23:35:23.361Z,42.01
2023-04-12T23:37:25.949Z,42.04
2023-04-12T23:39:28.708Z,42.17
2023-04-12T23:41:32.301Z,42.21
2023-04-12T23:43:35.153Z,42.29
2023-04-12T23:45:38.679Z,42.42
2023-04-12T23:47:41.417Z,42.70
2023-04-12T23:49:44.104Z,42.70
2023-04-12T23:51:47.005Z,42.72
2023-04-12T23:53:50.396Z,42.67
2023-04-12T23:55:53.773Z,42.97
2023-04-12T23:57:56.472Z,42.39
2023-04-12T23:59:59.153Z,42.45
